createdAt,value
2019-06-01T00:04:13.158Z,54.70
2019-06-01T00:09:04.063Z,55.70
2019-06-01T00:13:54.998Z,56.40
2019-06-01T00:18:46.057Z,57.00
2019-06-01T00:23:36.814Z,57.10
2019-06-01T00:28:27.785Z,55.30
2019-06-01T00:33:18.798Z,55.40
2019-06-01T00:38:09.807Z,55.70
2019-06-01T00:43:00.725Z,56.40
2019-06-01T00:47:52.989Z,57.00
2019-06-01T00:52:43.484Z,57.10
2019-06-01T00:57:34.418Z,55.70
2019-06-01T01:02:25.327Z,54.90
2019-06-01T01:07:16.254Z,55.70
2019-06-01T01:12:07.159Z,56.50
2019-06-01T01:16:58.092Z,57.10
2019-06-01T01:21:49.930Z,57.10
2019-06-01T01:26:40.027Z,56.00
2019-06-01T01:31:30.928Z,55.10
2019-06-01T01:36:21.960Z,55.80
2019-06-01T01:41:12.886Z,56.40
2019-06-01T01:46:03.905Z,57.10
2019-06-01T01:50:54.824Z,57.30
2019-06-01T01:55:45.736Z,56.40
2019-06-01T02:00:36.639Z,55.30
2019-06-01T02:05:27.550Z,55.60
2019-06-01T02:10:18.452Z,56.30
2019-06-01T02:15:09.412Z,56.90
2019-06-01T02:20:00.328Z,57.40
2019-06-01T02:24:51.280Z,56.70
2019-06-01T02:29:42.935Z,55.60
2019-06-01T02:34:34.632Z,56.30
2019-06-01T02:39:25.656Z,56.30
2019-06-01T02:44:16.571Z,57.00
2019-06-01T02:49:07.608Z,57.50
2019-06-01T02:53:59.612Z,55.40
2019-06-01T02:58:50.998Z,55.50
2019-06-01T03:03:42.692Z,56.10
2019-06-01T03:08:33.631Z,56.10
2019-06-01T03:13:24.525Z,56.90
2019-06-01T03:18:15.419Z,57.40
2019-06-01T03:23:06.318Z,57.20
2019-06-01T03:27:57.282Z,55.20
2019-06-01T03:32:48.227Z,55.20
2019-06-01T03:37:39.115Z,55.90
2019-06-01T03:42:30.008Z,56.70
2019-06-01T03:47:20.967Z,57.30
2019-06-01T03:52:13.023Z,57.20
2019-06-01T03:57:03.758Z,55.40
2019-06-01T04:01:54.665Z,56.30
2019-06-01T04:06:45.706Z,56.20
2019-06-01T04:11:37.360Z,57.20
2019-06-01T04:16:28.333Z,57.20
2019-06-01T04:21:19.244Z,57.20
2019-06-01T04:26:10.372Z,56.20
2019-06-01T04:31:02.267Z,54.80
2019-06-01T04:35:52.191Z,55.20
2019-06-01T04:40:43.098Z,56.10
2019-06-01T04:45:33.991Z,56.80
2019-06-01T04:50:24.891Z,57.20
2019-06-01T04:55:16.546Z,55.60
2019-06-01T05:00:15.329Z,55.60
2019-06-01T05:04:58.509Z,55.40
2019-06-01T05:09:49.537Z,56.10
2019-06-01T05:14:40.556Z,56.90
2019-06-01T05:19:31.574Z,57.30
2019-06-01T05:24:22.582Z,57.50
2019-06-01T05:29:13.574Z,56.10
2019-06-01T05:34:04.411Z,55.50
2019-06-01T05:38:55.345Z,55.90
2019-06-01T05:43:46.263Z,56.50
2019-06-01T05:48:37.184Z,57.00
2019-06-01T05:53:28.101Z,57.70
2019-06-01T05:58:19.705Z,56.00
2019-06-01T06:03:12.842Z,55.60
2019-06-01T06:08:01.618Z,56.40
2019-06-01T06:12:52.523Z,56.30
2019-06-01T06:17:44.175Z,57.90
2019-06-01T06:22:35.097Z,57.80
2019-06-01T06:27:26.003Z,56.40
2019-06-01T06:32:17.291Z,56.20
2019-06-01T06:37:07.995Z,55.90
2019-06-01T06:41:58.937Z,56.40
2019-06-01T06:46:49.949Z,57.20
2019-06-01T06:51:40.847Z,57.80
2019-06-01T06:56:31.789Z,57.70
2019-06-01T07:01:22.959Z,56.50
2019-06-01T07:06:14.090Z,56.30
2019-06-01T07:11:05.008Z,57.30
2019-06-01T07:15:55.962Z,57.60
2019-06-01T07:20:46.901Z,58.20
2019-06-01T07:25:37.820Z,58.90
2019-06-01T07:30:28.853Z,57.10
2019-06-01T07:35:20.509Z,57.00
2019-06-01T07:40:13.625Z,57.80
2019-06-01T07:45:04.479Z,57.80
2019-06-01T07:49:56.218Z,58.70
2019-06-01T07:55:02.927Z,57.30
2019-06-01T07:59:54.030Z,57.20
2019-06-01T08:04:53.791Z,57.20
2019-06-01T08:09:36.772Z,57.00
2019-06-01T08:14:28.632Z,57.40
2019-06-01T08:19:18.605Z,57.50
2019-06-01T08:24:09.642Z,57.80
2019-06-01T08:29:01.394Z,56.30
2019-06-01T08:33:53.108Z,56.40
2019-06-01T08:38:44.828Z,56.70
2019-06-01T08:43:35.764Z,56.60
2019-06-01T08:48:27.716Z,56.60
2019-06-01T08:53:17.802Z,56.40
2019-06-01T08:58:08.815Z,55.50
2019-06-01T09:03:14.719Z,55.30
2019-06-01T09:08:06.489Z,56.00
2019-06-01T09:12:57.446Z,56.00
2019-06-01T09:17:48.346Z,56.10
2019-06-01T09:22:39.288Z,55.90
2019-06-01T09:27:30.308Z,55.00
2019-06-01T09:32:21.238Z,54.90
2019-06-01T09:37:12.251Z,55.40
2019-06-01T09:42:03.269Z,55.70
2019-06-01T09:46:54.288Z,55.80
2019-06-01T09:51:45.203Z,55.70
2019-06-01T09:56:37.810Z,54.90
2019-06-01T10:01:28.157Z,55.10
2019-06-01T10:06:18.779Z,55.00
2019-06-01T10:11:09.679Z,55.30
2019-06-01T10:16:00.595Z,55.20
2019-06-01T10:20:52.359Z,53.50
2019-06-01T10:25:43.289Z,53.70
2019-06-01T10:30:34.184Z,53.70
2019-06-01T10:35:25.095Z,54.20
2019-06-01T10:40:16.047Z,54.50
2019-06-01T10:45:07.703Z,54.30
2019-06-01T10:49:59.342Z,53.30
2019-06-01T10:54:51.079Z,53.30
2019-06-01T10:59:42.630Z,53.30
2019-06-01T11:04:32.922Z,53.70
2019-06-01T11:09:24.020Z,53.90
2019-06-01T11:14:15.688Z,53.50
2019-06-01T11:19:06.664Z,53.40
2019-06-01T11:23:57.607Z,52.70
2019-06-01T11:28:49.258Z,53.00
2019-06-01T11:33:40.218Z,53.00
2019-06-01T11:38:31.112Z,53.00
2019-06-01T11:43:22.022Z,52.70
2019-06-01T11:48:12.991Z,52.50
2019-06-01T11:53:04.008Z,51.30
2019-06-01T11:57:55.040Z,51.40
2019-06-01T12:02:46.862Z,51.60
2019-06-01T12:07:37.783Z,51.50
2019-06-01T12:12:29.423Z,50.40
2019-06-01T12:17:20.447Z,50.50
2019-06-01T12:22:12.290Z,49.40
2019-06-01T12:27:03.199Z,49.40
2019-06-01T12:31:54.112Z,49.90
2019-06-01T12:36:46.282Z,50.20
2019-06-01T12:41:35.957Z,49.20
2019-06-01T12:46:27.616Z,47.90
2019-06-01T12:51:19.339Z,47.80
2019-06-01T12:56:10.256Z,47.70
2019-06-01T13:01:02.859Z,47.80
2019-06-01T13:05:52.900Z,47.30
2019-06-01T13:10:45.056Z,47.30
2019-06-01T13:15:35.563Z,45.10
2019-06-01T13:20:26.576Z,45.10
2019-06-01T13:25:17.515Z,45.00
2019-06-01T13:30:08.426Z,44.40
2019-06-01T13:34:59.336Z,44.30
2019-06-01T13:39:56.001Z,44.40
2019-06-01T13:44:41.180Z,44.40
2019-06-01T13:49:32.099Z,42.30
2019-06-01T13:54:23.128Z,42.30
2019-06-01T13:59:14.034Z,42.90
2019-06-01T14:04:04.939Z,43.40
2019-06-01T14:08:55.830Z,43.60
2019-06-01T14:13:47.460Z,43.90
2019-06-01T14:18:37.719Z,43.80
2019-06-01T14:23:28.740Z,43.00
2019-06-01T14:28:19.760Z,44.10
2019-06-01T14:33:10.667Z,43.50
2019-06-01T14:38:01.660Z,44.20
2019-06-01T14:42:53.635Z,43.80
2019-06-01T14:47:43.531Z,43.00
2019-06-01T14:52:35.262Z,43.00
2019-06-01T14:57:25.362Z,42.70
2019-06-01T15:02:16.265Z,43.70
2019-06-01T15:07:07.190Z,43.20
2019-06-01T15:11:58.770Z,42.40
2019-06-01T15:16:49.576Z,42.60
2019-06-01T15:21:40.059Z,41.80
2019-06-01T15:26:30.993Z,41.80
2019-06-01T15:31:22.006Z,42.10
2019-06-01T15:36:12.919Z,42.80
2019-06-01T15:41:03.955Z,43.30
2019-06-01T15:45:55.370Z,43.50
2019-06-01T15:50:45.881Z,42.60
2019-06-01T15:55:36.794Z,42.10
2019-06-01T16:00:27.725Z,41.80
2019-06-01T16:05:18.627Z,42.20
2019-06-01T16:10:09.560Z,42.90
2019-06-01T16:15:02.021Z,42.50
2019-06-01T16:19:51.384Z,42.40
2019-06-01T16:24:42.291Z,41.70
2019-06-01T16:29:33.191Z,42.00
2019-06-01T16:34:24.143Z,42.30
2019-06-01T16:39:15.044Z,43.00
2019-06-01T16:44:05.979Z,43.70
2019-06-01T16:48:57.467Z,44.30
2019-06-01T16:53:48.027Z,43.20
2019-06-01T16:58:38.952Z,42.70
2019-06-01T17:03:29.859Z,43.20
2019-06-01T17:08:20.763Z,43.70
2019-06-01T17:13:11.658Z,44.80
2019-06-01T17:18:06.176Z,44.50
2019-06-01T17:22:53.552Z,44.40
2019-06-01T17:27:44.488Z,44.10
2019-06-01T17:32:36.148Z,44.10
2019-06-01T17:37:27.055Z,44.10
2019-06-01T17:42:17.954Z,45.10
2019-06-01T17:47:09.602Z,45.70
2019-06-01T17:52:01.878Z,45.20
2019-06-01T17:56:52.288Z,45.10
2019-06-01T18:01:43.249Z,43.70
2019-06-01T18:06:34.147Z,45.40
2019-06-01T18:11:25.078Z,45.80
2019-06-01T18:16:16.028Z,46.70
2019-06-01T18:21:08.401Z,46.30
2019-06-01T18:25:58.612Z,46.30
2019-06-01T18:30:49.520Z,45.40
2019-06-01T18:35:40.423Z,45.70
2019-06-01T18:40:32.050Z,47.50
2019-06-01T18:45:23.756Z,48.10
2019-06-01T18:50:17.328Z,48.00
2019-06-01T18:55:06.425Z,47.50
2019-06-01T18:59:57.286Z,46.80
2019-06-01T19:04:48.265Z,46.80
2019-06-01T19:09:39.185Z,47.90
2019-06-01T19:14:30.191Z,49.00
2019-06-01T19:19:21.116Z,49.10
2019-06-01T19:24:12.639Z,49.10
2019-06-01T19:29:03.762Z,48.00
2019-06-01T19:33:54.659Z,48.00
2019-06-01T19:38:45.598Z,48.90
2019-06-01T19:43:36.517Z,49.90
2019-06-01T19:48:27.455Z,50.30
2019-06-01T19:53:18.913Z,50.20
2019-06-01T19:58:09.971Z,49.20
2019-06-01T20:03:01.072Z,49.70
2019-06-01T20:07:51.983Z,49.70
2019-06-01T20:12:42.893Z,50.20
2019-06-01T20:17:34.586Z,51.50
2019-06-01T20:22:26.378Z,50.10
2019-06-01T20:27:17.519Z,50.10
2019-06-01T20:32:08.214Z,49.40
2019-06-01T20:36:59.907Z,50.70
2019-06-01T20:41:50.810Z,50.70
2019-06-01T20:46:41.719Z,51.40
2019-06-01T20:51:32.622Z,51.80
2019-06-01T20:56:23.614Z,50.90
2019-06-01T21:01:15.591Z,50.20
2019-06-01T21:06:06.257Z,51.50
2019-06-01T21:10:57.162Z,51.30
2019-06-01T21:15:48.090Z,52.20
2019-06-01T21:20:39.083Z,52.70
2019-06-01T21:25:30.012Z,52.10
2019-06-01T21:30:22.640Z,51.00
2019-06-01T21:35:11.842Z,51.00
2019-06-01T21:40:05.722Z,51.70
2019-06-01T21:44:56.663Z,52.30
2019-06-01T21:49:47.572Z,53.00
2019-06-01T21:54:38.497Z,53.20
2019-06-01T21:59:29.410Z,51.70
2019-06-01T22:04:20.803Z,51.20
2019-06-01T22:09:12.066Z,52.70
2019-06-01T22:14:02.975Z,52.60
2019-06-01T22:18:53.912Z,53.40
2019-06-01T22:23:44.928Z,53.40
2019-06-01T22:28:35.839Z,52.70
2019-06-01T22:33:26.739Z,51.70
2019-06-01T22:38:17.647Z,52.20
2019-06-01T22:43:08.608Z,52.80
2019-06-01T22:47:59.519Z,53.60
2019-06-01T22:52:51.272Z,53.70
2019-06-01T22:57:43.239Z,53.70
2019-06-01T23:02:33.202Z,52.20
2019-06-01T23:07:25.104Z,52.20
2019-06-01T23:12:15.240Z,52.70
2019-06-01T23:17:06.156Z,53.50
2019-06-01T23:21:57.078Z,54.10
2019-06-01T23:26:47.990Z,54.10
2019-06-01T23:31:38.918Z,52.60
2019-06-01T23:36:30.687Z,52.20
2019-06-01T23:41:20.756Z,52.60
2019-06-01T23:46:11.654Z,53.40
2019-06-01T23:51:02.584Z,54.10
2019-06-01T23:55:53.508Z,54.00
